createdAt,value
2019-03-10T00:00:14.027Z,9.65
2019-03-10T00:02:45.235Z,9.63
2019-03-10T00:05:16.446Z,9.60
2019-03-10T00:07:47.681Z,9.69
2019-03-10T00:10:18.948Z,9.63
2019-03-10T00:12:50.240Z,9.56
2019-03-10T00:15:21.548Z,9.57
2019-03-10T00:17:52.768Z,9.63
2019-03-10T00:20:24.223Z,9.62
2019-03-10T00:22:55.746Z,9.58
2019-03-10T00:25:28.504Z,9.55
2019-03-10T00:27:59.729Z,9.55
2019-03-10T00:30:30.922Z,9.56
2019-03-10T00:33:02.118Z,9.53
2019-03-10T00:35:33.365Z,9.55
2019-03-10T00:38:04.600Z,9.56
2019-03-10T00:41:11.145Z,9.57
2019-03-10T00:44:22.303Z,9.58
2019-03-10T00:47:30.429Z,9.49
2019-03-10T00:50:21.227Z,9.52
2019-03-10T00:53:02.109Z,9.55
2019-03-10T00:55:33.281Z,9.55
2019-03-10T00:58:04.567Z,9.54
2019-03-10T01:00:36.166Z,9.57
2019-03-10T01:03:07.368Z,9.58
2019-03-10T01:05:38.656Z,9.49
2019-03-10T01:08:09.825Z,9.54
2019-03-10T01:10:41.323Z,9.52
2019-03-10T01:13:12.598Z,9.51
2019-03-10T01:15:43.855Z,9.49
2019-03-10T01:18:15.807Z,9.48
2019-03-10T01:20:47.633Z,9.49
2019-03-10T01:23:18.810Z,9.54
2019-03-10T01:25:50.109Z,9.51
2019-03-10T01:28:21.291Z,9.52
2019-03-10T01:31:05.275Z,9.47
2019-03-10T01:34:07.119Z,9.50
2019-03-10T01:36:38.785Z,9.43
2019-03-10T01:39:11.266Z,9.42
2019-03-10T01:41:42.472Z,9.49
2019-03-10T01:44:15.301Z,9.39
2019-03-10T01:46:46.507Z,9.42
2019-03-10T01:49:17.711Z,9.41
2019-03-10T01:51:48.932Z,9.46
2019-03-10T01:54:27.906Z,9.56
2019-03-10T01:56:59.176Z,9.50
2019-03-10T01:59:30.390Z,9.53
2019-03-10T02:02:01.617Z,9.51
2019-03-10T02:04:32.820Z,9.49
2019-03-10T02:07:04.523Z,9.54
2019-03-10T02:09:35.797Z,9.51
2019-03-10T02:12:09.012Z,9.44
2019-03-10T02:14:40.479Z,9.43
2019-03-10T02:17:11.767Z,9.47
2019-03-10T02:19:42.997Z,9.46
2019-03-10T02:22:14.207Z,9.41
2019-03-10T02:24:45.385Z,9.48
2019-03-10T02:27:16.929Z,9.47
2019-03-10T02:29:48.116Z,9.48
2019-03-10T02:32:19.998Z,9.50
2019-03-10T02:34:51.176Z,9.49
2019-03-10T02:37:22.697Z,9.47
2019-03-10T02:39:53.891Z,9.45
2019-03-10T02:42:25.410Z,9.47
2019-03-10T02:44:56.614Z,9.38
2019-03-10T02:47:27.823Z,9.45
2019-03-10T02:49:59.031Z,9.37
2019-03-10T02:52:30.257Z,9.44
2019-03-10T02:55:02.388Z,9.40
2019-03-10T02:57:33.667Z,9.35
2019-03-10T03:00:06.533Z,9.38
2019-03-10T03:02:38.306Z,9.39
2019-03-10T03:05:10.112Z,9.40
2019-03-10T03:07:41.536Z,9.42
2019-03-10T03:10:13.311Z,9.35
2019-03-10T03:12:44.531Z,9.38
2019-03-10T03:15:16.454Z,9.35
2019-03-10T03:17:49.017Z,9.34
2019-03-10T03:20:20.238Z,9.34
2019-03-10T03:22:51.931Z,9.33
2019-03-10T03:25:23.127Z,9.36
2019-03-10T03:27:54.389Z,9.26
2019-03-10T03:30:26.188Z,9.20
2019-03-10T03:32:57.370Z,9.21
2019-03-10T03:36:01.420Z,9.22
2019-03-10T03:38:36.002Z,9.18
2019-03-10T03:41:11.194Z,9.23
2019-03-10T03:43:42.730Z,9.29
2019-03-10T03:46:14.668Z,9.27
2019-03-10T03:48:46.227Z,9.30
2019-03-10T03:51:17.806Z,9.22
2019-03-10T03:53:49.355Z,9.23
2019-03-10T03:59:46.271Z,9.13
2019-03-10T04:02:36.404Z,9.14
2019-03-10T04:05:08.490Z,9.15
2019-03-10T04:07:39.668Z,9.20
2019-03-10T04:10:10.870Z,9.21
2019-03-10T04:12:42.163Z,9.30
2019-03-10T04:15:13.763Z,9.09
2019-03-10T04:17:45.068Z,9.10
2019-03-10T04:20:16.251Z,9.20
2019-03-10T04:22:47.510Z,9.10
2019-03-10T04:25:18.702Z,9.07
2019-03-10T04:27:50.067Z,9.03
2019-03-10T04:30:21.279Z,8.95
2019-03-10T04:32:52.481Z,8.94
2019-03-10T04:35:23.796Z,8.95
2019-03-10T04:37:54.982Z,9.04
2019-03-10T04:40:26.521Z,8.96
2019-03-10T04:42:57.770Z,8.93
2019-03-10T04:45:28.954Z,9.00
2019-03-10T04:48:00.150Z,9.08
2019-03-10T04:50:31.418Z,9.05
2019-03-10T04:53:02.658Z,8.85
2019-03-10T04:55:41.936Z,8.96
2019-03-10T04:58:14.761Z,8.98
2019-03-10T05:00:48.681Z,8.94
2019-03-10T05:03:20.145Z,9.01
2019-03-10T05:05:51.497Z,8.95
2019-03-10T05:08:22.833Z,8.94
2019-03-10T05:10:54.212Z,8.91
2019-03-10T05:13:25.628Z,8.92
2019-03-10T05:15:56.918Z,8.85
2019-03-10T05:18:28.139Z,8.82
2019-03-10T05:20:59.684Z,8.70
2019-03-10T05:23:39.141Z,8.92
2019-03-10T05:26:10.521Z,8.93
2019-03-10T05:28:48.734Z,8.85
2019-03-10T05:31:20.251Z,8.84
2019-03-10T05:33:51.436Z,8.79
2019-03-10T05:36:22.628Z,8.81
2019-03-10T05:38:54.118Z,8.77
2019-03-10T05:41:25.654Z,8.87
2019-03-10T05:43:58.832Z,8.75
2019-03-10T05:46:30.401Z,8.74
2019-03-10T05:49:01.576Z,8.79
2019-03-10T05:51:32.781Z,8.94
2019-03-10T05:54:04.106Z,8.89
2019-03-10T05:56:35.340Z,8.81
2019-03-10T05:59:06.543Z,8.76
2019-03-10T06:01:37.747Z,8.76
2019-03-10T06:04:09.082Z,8.79
2019-03-10T06:06:40.276Z,8.92
2019-03-10T06:09:11.650Z,8.85
2019-03-10T06:11:42.853Z,8.76
2019-03-10T06:14:14.179Z,8.79
2019-03-10T06:16:45.418Z,8.78
2019-03-10T06:19:16.653Z,8.82
2019-03-10T06:21:47.831Z,8.81
2019-03-10T06:24:19.192Z,8.90
2019-03-10T06:26:50.386Z,8.98
2019-03-10T06:29:21.589Z,9.01
2019-03-10T06:31:54.541Z,8.91
2019-03-10T06:34:26.285Z,8.81
2019-03-10T06:36:57.523Z,8.91
2019-03-10T06:39:28.757Z,8.87
2019-03-10T06:42:00.278Z,8.86
2019-03-10T06:44:31.757Z,8.77
2019-03-10T06:47:03.124Z,8.84
2019-03-10T06:49:34.565Z,8.70
2019-03-10T06:52:06.006Z,8.57
2019-03-10T06:54:37.224Z,8.53
2019-03-10T06:57:08.753Z,8.04
2019-03-10T06:59:40.444Z,8.50
2019-03-10T07:02:12.974Z,8.42
2019-03-10T07:04:46.037Z,8.38
2019-03-10T07:07:17.371Z,8.36
2019-03-10T07:09:48.735Z,8.19
2019-03-10T07:12:19.980Z,8.09
2019-03-10T07:14:51.511Z,8.13
2019-03-10T07:17:23.252Z,8.15
2019-03-10T07:19:54.581Z,8.13
2019-03-10T07:22:25.844Z,8.16
2019-03-10T07:24:57.040Z,8.23
2019-03-10T07:27:35.623Z,8.30
2019-03-10T07:30:25.891Z,8.32
2019-03-10T07:33:16.452Z,8.42
2019-03-10T07:36:15.884Z,8.39
2019-03-10T07:39:06.405Z,8.49
2019-03-10T07:41:59.348Z,8.50
2019-03-10T07:44:55.376Z,8.52
2019-03-10T07:47:54.838Z,8.40
2019-03-10T07:50:45.298Z,8.42
2019-03-10T07:53:38.430Z,8.58
2019-03-10T07:56:28.595Z,8.54
2019-03-10T07:59:18.870Z,8.53
2019-03-10T08:02:18.105Z,8.58
2019-03-10T08:05:04.333Z,8.72
2019-03-10T08:08:06.354Z,8.44
2019-03-10T08:10:47.892Z,8.29
2019-03-10T08:13:43.883Z,8.42
2019-03-10T08:16:46.741Z,8.44
2019-03-10T08:19:37.250Z,8.40
2019-03-10T08:22:21.456Z,8.39
2019-03-10T08:25:18.147Z,8.17
2019-03-10T08:28:20.386Z,8.16
2019-03-10T08:31:19.719Z,8.09
2019-03-10T08:34:31.356Z,7.91
2019-03-10T08:37:30.507Z,7.95
2019-03-10T08:40:20.384Z,8.09
2019-03-10T08:43:22.545Z,8.11
2019-03-10T08:46:14.431Z,8.09
2019-03-10T08:48:56.490Z,8.10
2019-03-10T08:51:47.178Z,8.02
2019-03-10T08:54:40.683Z,8.00
2019-03-10T08:57:33.929Z,7.80
2019-03-10T09:00:12.944Z,7.99
2019-03-10T09:03:10.339Z,7.68
2019-03-10T09:06:09.607Z,7.67
2019-03-10T09:08:53.067Z,7.72
2019-03-10T09:11:43.774Z,7.71
2019-03-10T09:14:28.542Z,7.41
2019-03-10T09:17:18.739Z,7.48
2019-03-10T09:20:27.660Z,7.42
2019-03-10T09:23:21.183Z,7.30
2019-03-10T09:26:06.112Z,7.35
2019-03-10T09:28:47.531Z,7.56
2019-03-10T09:31:50.184Z,7.62
2019-03-10T09:34:40.377Z,7.29
2019-03-10T09:37:26.580Z,7.27
2019-03-10T09:40:12.315Z,7.14
2019-03-10T09:43:05.452Z,7.35
2019-03-10T09:45:48.333Z,7.18
2019-03-10T09:48:28.410Z,7.23
2019-03-10T09:51:25.542Z,7.38
2019-03-10T09:54:17.681Z,7.43
2019-03-10T09:57:09.841Z,7.26
2019-03-10T09:59:49.920Z,7.31
2019-03-10T10:05:49.655Z,7.41
2019-03-10T10:08:28.197Z,7.20
2019-03-10T10:11:12.130Z,7.26
2019-03-10T10:14:02.578Z,7.37
2019-03-10T10:16:51.763Z,7.42
2019-03-10T10:19:48.117Z,7.51
2019-03-10T10:22:37.051Z,7.04
2019-03-10T10:25:27.207Z,7.13
2019-03-10T10:28:13.890Z,7.20
2019-03-10T10:30:50.694Z,7.31
2019-03-10T10:33:42.008Z,7.22
2019-03-10T10:36:24.126Z,7.41
2019-03-10T10:39:17.957Z,7.66
2019-03-10T10:42:08.320Z,7.59
2019-03-10T10:45:01.725Z,7.73
2019-03-10T10:48:04.265Z,7.79
2019-03-10T10:50:54.418Z,7.80
2019-03-10T10:53:42.596Z,7.88
2019-03-10T10:56:35.939Z,7.77
2019-03-10T10:59:30.304Z,7.85
2019-03-10T11:02:07.523Z,7.95
2019-03-10T11:04:52.217Z,7.92
2019-03-10T11:07:41.060Z,8.05
2019-03-10T11:10:34.461Z,7.97
2019-03-10T11:13:34.516Z,8.16
2019-03-10T11:16:14.095Z,8.17
2019-03-10T11:19:03.077Z,8.35
2019-03-10T11:22:02.327Z,8.38
2019-03-10T11:24:52.509Z,8.54
2019-03-10T11:28:06.510Z,8.47
2019-03-10T11:31:05.892Z,8.49
2019-03-10T11:33:52.792Z,8.39
2019-03-10T11:36:42.193Z,8.57
2019-03-10T11:39:32.627Z,8.35
2019-03-10T11:42:25.351Z,8.46
2019-03-10T11:45:13.726Z,8.56
2019-03-10T11:47:55.107Z,8.54
2019-03-10T11:50:36.809Z,8.61
2019-03-10T11:53:20.226Z,8.68
2019-03-10T11:55:59.081Z,8.70
2019-03-10T11:58:38.387Z,8.78
2019-03-10T12:01:42.828Z,8.68
2019-03-10T12:04:39.207Z,8.63
2019-03-10T12:10:40.545Z,8.80
2019-03-10T12:13:11.812Z,8.72
2019-03-10T12:19:18.755Z,8.81
2019-03-10T12:21:56.800Z,8.92
2019-03-10T12:24:32.100Z,8.87
2019-03-10T12:27:03.323Z,8.88
2019-03-10T12:29:35.110Z,8.91
2019-03-10T12:32:06.369Z,8.93
2019-03-10T12:34:37.928Z,9.03
2019-03-10T12:37:10.324Z,9.00
2019-03-10T12:39:42.390Z,8.96
2019-03-10T12:42:13.769Z,8.99
2019-03-10T12:44:45.856Z,9.00
2019-03-10T12:47:17.520Z,8.99
2019-03-10T12:49:48.765Z,8.99
2019-03-10T12:52:20.035Z,9.01
2019-03-10T12:54:51.587Z,9.01
2019-03-10T12:57:22.808Z,9.10
2019-03-10T12:59:54.009Z,9.14
2019-03-10T13:02:26.556Z,9.17
2019-03-10T13:04:59.308Z,9.13
2019-03-10T13:07:30.916Z,9.15
2019-03-10T13:10:02.825Z,9.21
2019-03-10T13:12:34.027Z,9.20
2019-03-10T13:15:07.691Z,9.23
2019-03-10T13:17:39.132Z,9.29
2019-03-10T13:20:10.885Z,9.28
2019-03-10T13:22:42.252Z,9.28
2019-03-10T13:25:14.021Z,9.28
2019-03-10T13:27:45.402Z,9.26
2019-03-10T13:30:16.923Z,9.26
2019-03-10T13:32:48.170Z,9.33
2019-03-10T13:35:19.335Z,9.34
2019-03-10T13:37:50.971Z,9.37
2019-03-10T13:40:22.392Z,9.36
2019-03-10T13:42:53.853Z,9.34
2019-03-10T13:45:25.160Z,9.28
2019-03-10T13:47:56.524Z,9.39
2019-03-10T13:50:27.921Z,9.52
2019-03-10T13:52:59.228Z,9.55
2019-03-10T13:55:54.011Z,9.53
2019-03-10T13:58:25.246Z,9.49
2019-03-10T14:00:56.628Z,9.54
2019-03-10T14:03:27.993Z,9.53
2019-03-10T14:05:59.559Z,9.65
2019-03-10T14:08:30.800Z,9.68
2019-03-10T14:11:02.283Z,9.74
2019-03-10T14:13:33.632Z,9.81
2019-03-10T14:16:04.836Z,9.84
2019-03-10T14:18:36.228Z,9.79
2019-03-10T14:21:07.439Z,9.73
2019-03-10T14:23:38.990Z,9.79
2019-03-10T14:26:10.275Z,9.79
2019-03-10T14:28:41.475Z,9.78
2019-03-10T14:31:13.228Z,9.84
2019-03-10T14:33:44.522Z,9.80
2019-03-10T14:36:15.703Z,9.85
2019-03-10T14:38:46.939Z,9.77
2019-03-10T14:41:18.130Z,9.81
2019-03-10T14:43:49.536Z,9.84
2019-03-10T14:46:21.070Z,9.91
2019-03-10T14:48:52.678Z,9.99
2019-03-10T14:51:23.888Z,10.06
2019-03-10T14:53:55.156Z,10.16
2019-03-10T14:56:26.488Z,10.17
2019-03-10T14:58:57.706Z,10.36
2019-03-10T15:01:29.002Z,10.41
2019-03-10T15:04:00.292Z,10.47
2019-03-10T15:06:31.936Z,10.61
2019-03-10T15:09:03.630Z,10.57
2019-03-10T15:11:34.997Z,10.52
2019-03-10T15:14:06.367Z,10.46
2019-03-10T15:16:37.613Z,10.47
2019-03-10T15:19:08.872Z,10.59
2019-03-10T15:21:40.138Z,10.55
2019-03-10T15:24:11.420Z,10.80
2019-03-10T15:26:45.999Z,10.77
2019-03-10T15:29:15.765Z,10.81
2019-03-10T15:31:46.961Z,10.79
2019-03-10T15:34:18.331Z,10.80
2019-03-10T15:36:49.642Z,10.84
2019-03-10T15:39:20.837Z,10.82
2019-03-10T15:41:52.125Z,10.93
2019-03-10T15:44:25.633Z,10.95
2019-03-10T15:46:58.391Z,10.94
2019-03-10T15:49:29.801Z,11.10
2019-03-10T15:52:00.982Z,11.04
2019-03-10T15:54:32.214Z,11.03
2019-03-10T15:57:04.264Z,10.97
2019-03-10T15:59:35.531Z,11.00
2019-03-10T16:02:06.772Z,11.07
2019-03-10T16:04:38.291Z,11.06
2019-03-10T16:07:09.896Z,11.04
2019-03-10T16:09:41.271Z,11.00
2019-03-10T16:12:13.084Z,11.25
2019-03-10T16:14:44.760Z,11.34
2019-03-10T16:17:16.140Z,11.20
2019-03-10T16:19:47.636Z,11.11
2019-03-10T16:22:18.948Z,10.96
2019-03-10T16:24:50.675Z,10.74
2019-03-10T16:27:21.919Z,10.76
2019-03-10T16:29:53.506Z,10.65
2019-03-10T16:32:24.935Z,10.69
2019-03-10T16:34:56.151Z,10.87
2019-03-10T16:37:27.356Z,10.84
2019-03-10T16:39:58.551Z,10.80
2019-03-10T16:42:29.866Z,10.91
2019-03-10T16:45:01.074Z,11.01
2019-03-10T16:47:32.388Z,11.03
2019-03-10T16:50:03.984Z,11.03
2019-03-10T16:52:35.535Z,11.04
2019-03-10T16:55:07.409Z,10.96
2019-03-10T16:57:38.689Z,10.76
2019-03-10T17:00:10.774Z,10.58
2019-03-10T17:02:43.519Z,10.45
2019-03-10T17:05:16.281Z,10.31
2019-03-10T17:07:47.783Z,10.43
2019-03-10T17:10:18.995Z,10.46
2019-03-10T17:12:50.457Z,10.45
2019-03-10T17:15:21.986Z,10.56
2019-03-10T17:17:53.490Z,10.54
2019-03-10T17:20:24.712Z,10.68
2019-03-10T17:22:56.234Z,10.69
2019-03-10T17:25:27.787Z,10.68
2019-03-10T17:27:59.366Z,10.68
2019-03-10T17:30:32.130Z,10.71
2019-03-10T17:33:03.640Z,10.68
2019-03-10T17:35:34.820Z,10.76
2019-03-10T17:38:06.295Z,10.69
2019-03-10T17:40:37.522Z,10.63
2019-03-10T17:43:09.525Z,10.59
2019-03-10T17:45:41.133Z,10.63
2019-03-10T17:48:13.208Z,10.56
2019-03-10T17:50:44.689Z,10.49
2019-03-10T17:53:16.427Z,10.45
2019-03-10T17:55:47.721Z,10.45
2019-03-10T17:58:19.287Z,10.47
2019-03-10T18:00:50.948Z,10.55
2019-03-10T18:03:22.199Z,10.48
2019-03-10T18:05:53.401Z,10.36
2019-03-10T18:08:24.802Z,10.40
2019-03-10T18:10:56.018Z,10.44
2019-03-10T18:13:27.257Z,10.37
2019-03-10T18:15:58.555Z,10.34
2019-03-10T18:18:29.811Z,10.37
2019-03-10T18:21:01.017Z,10.30
2019-03-10T18:23:32.328Z,10.38
2019-03-10T18:26:03.682Z,10.27
2019-03-10T18:28:34.948Z,10.18
2019-03-10T18:31:06.356Z,10.24
2019-03-10T18:33:37.578Z,10.24
2019-03-10T18:36:08.794Z,10.23
2019-03-10T18:38:40.391Z,10.18
2019-03-10T18:41:11.847Z,10.24
2019-03-10T18:43:43.053Z,10.20
2019-03-10T18:46:14.261Z,10.21
2019-03-10T18:48:45.462Z,10.37
2019-03-10T18:51:16.961Z,10.30
2019-03-10T18:53:48.189Z,10.29
2019-03-10T18:56:19.401Z,10.28
2019-03-10T18:58:51.175Z,10.29
2019-03-10T19:01:22.746Z,10.29
2019-03-10T19:03:54.763Z,10.24
2019-03-10T19:06:27.955Z,10.21
2019-03-10T19:08:59.129Z,10.24
2019-03-10T19:11:30.529Z,10.22
2019-03-10T19:14:01.885Z,10.13
2019-03-10T19:16:33.537Z,10.17
2019-03-10T19:19:04.738Z,10.15
2019-03-10T19:21:36.328Z,10.12
2019-03-10T19:24:07.702Z,10.14
2019-03-10T19:26:38.981Z,10.09
2019-03-10T19:29:10.480Z,10.11
2019-03-10T19:31:41.705Z,10.12
2019-03-10T19:34:13.001Z,10.11
2019-03-10T19:36:44.361Z,10.13
2019-03-10T19:39:15.586Z,10.10
2019-03-10T19:41:46.842Z,9.99
2019-03-10T19:44:20.922Z,9.91
2019-03-10T19:46:51.307Z,9.88
2019-03-10T19:49:22.755Z,9.81
2019-03-10T19:51:55.181Z,9.76
2019-03-10T19:54:27.685Z,9.72
2019-03-10T19:56:59.061Z,9.79
2019-03-10T19:59:32.537Z,9.73
2019-03-10T20:02:04.097Z,9.76
2019-03-10T20:04:35.300Z,9.73
2019-03-10T20:07:06.491Z,9.74
2019-03-10T20:09:58.951Z,9.63
2019-03-10T20:12:30.323Z,9.62
2019-03-10T20:15:01.812Z,9.51
2019-03-10T20:17:33.515Z,9.40
2019-03-10T20:20:05.410Z,9.34
2019-03-10T20:22:36.714Z,9.40
2019-03-10T20:25:09.895Z,9.39
2019-03-10T20:27:41.783Z,9.28
2019-03-10T21:19:44.995Z,9.05
2019-03-10T21:22:16.221Z,8.98
2019-03-10T21:24:47.482Z,9.01
2019-03-10T21:27:18.736Z,8.94
2019-03-10T21:29:51.111Z,8.87
2019-03-10T21:32:22.605Z,8.83
2019-03-10T21:34:55.819Z,8.86
2019-03-10T21:37:29.514Z,8.84
2019-03-10T21:40:00.760Z,8.70
2019-03-10T21:42:33.361Z,8.67
2019-03-10T21:45:05.238Z,8.71
2019-03-10T21:47:36.787Z,8.66
2019-03-10T21:50:09.344Z,8.63
2019-03-10T21:52:40.532Z,8.65
2019-03-10T21:55:12.171Z,8.67
2019-03-10T21:57:43.448Z,8.70
2019-03-10T22:00:14.755Z,8.68
2019-03-10T22:02:45.999Z,8.74
2019-03-10T22:05:17.365Z,8.70
2019-03-10T22:07:48.602Z,8.64
2019-03-10T22:10:26.820Z,8.68
2019-03-10T22:12:52.971Z,8.71
2019-03-10T22:15:24.328Z,8.52
2019-03-10T22:17:55.699Z,8.40
2019-03-10T22:20:27.028Z,8.40
2019-03-10T22:22:58.227Z,8.36
2019-03-10T22:25:29.439Z,8.35
2019-03-10T22:28:00.922Z,8.37
2019-03-10T22:30:32.148Z,8.35
2019-03-10T22:33:03.625Z,8.45
2019-03-10T22:35:34.837Z,8.49
2019-03-10T22:38:06.341Z,8.54
2019-03-10T22:40:37.872Z,8.47
2019-03-10T22:43:09.089Z,8.10
2019-03-10T22:45:40.746Z,7.76
2019-03-10T22:48:11.919Z,7.37
2019-03-10T22:50:43.155Z,7.19
2019-03-10T22:53:14.339Z,7.24
2019-03-10T22:55:45.665Z,7.16
2019-03-10T22:58:17.554Z,7.23
2019-03-10T23:00:51.794Z,7.21
2019-03-10T23:03:23.096Z,7.23
2019-03-10T23:05:54.392Z,7.23
2019-03-10T23:08:26.096Z,7.16
2019-03-10T23:10:57.376Z,7.12
2019-03-10T23:13:28.784Z,7.09
2019-03-10T23:16:00.165Z,7.12
2019-03-10T23:18:32.570Z,6.99
2019-03-10T23:21:03.827Z,6.96
2019-03-10T23:23:35.239Z,6.89
2019-03-10T23:26:06.435Z,6.94
2019-03-10T23:28:37.732Z,7.01
2019-03-10T23:31:09.083Z,6.92
2019-03-10T23:33:40.590Z,6.83
2019-03-10T23:36:11.799Z,6.86
2019-03-10T23:38:43.012Z,6.82
2019-03-10T23:41:14.206Z,6.78
2019-03-10T23:43:45.413Z,6.79
2019-03-10T23:46:16.622Z,6.77
2019-03-10T23:48:48.135Z,6.76
2019-03-10T23:51:19.426Z,6.72
2019-03-10T23:53:50.936Z,6.63
2019-03-10T23:56:22.375Z,6.62
2019-03-10T23:58:53.709Z,6.53
